Time;durP1;ratioP1;P1;durP2;ratioP2;P2;SDS_P1;SDS_P2;PMS_P1;PMS_P2;Temp;Humidity;BMP_temperature;BMP_pressure;BME280_temperature;BME280_humidity;BME280_pressure;Samples;Min_cycle;Max_cycle;Signal;HPM_P1;HPM_P2
2024/02/21 00:01:03;;;;;;;4.40;1.65;;;13.70;66.70;;;;;;5027393;28;20073;-79
2024/02/21 00:03:49;;;;;;;5.28;2.20;;;13.70;66.80;;;;;;5029499;28;20281;-80
2024/02/21 00:06:33;;;;;;;4.72;1.63;;;13.60;66.70;;;;;;5038882;28;20443;-80
2024/02/21 00:09:19;;;;;;;4.30;1.60;;;13.60;66.70;;;;;;5036119;28;20155;-79
2024/02/21 00:12:05;;;;;;;4.45;1.75;;;13.60;66.70;;;;;;5022287;28;20063;-78
2024/02/21 00:14:49;;;;;;;5.80;1.85;;;13.50;66.60;;;;;;5038669;28;20192;-79
2024/02/21 00:17:34;;;;;;;5.03;1.98;;;13.60;66.80;;;;;;5034916;28;20443;-78
2024/02/21 00:20:18;;;;;;;4.90;1.98;;;13.60;66.90;;;;;;5032016;28;20064;-78
2024/02/21 00:23:04;;;;;;;6.25;2.30;;;13.50;66.70;;;;;;5042055;28;20359;-79
2024/02/21 00:25:49;;;;;;;4.10;2.00;;;13.50;66.80;;;;;;5014642;28;20063;-79
2024/02/21 00:28:34;;;;;;;4.20;1.80;;;13.50;66.80;;;;;;5037049;28;20185;-79
2024/02/21 00:31:18;;;;;;;5.70;2.47;;;13.50;66.90;;;;;;5032506;28;20531;-79
2024/02/21 00:34:03;;;;;;;7.47;2.38;;;13.50;66.90;;;;;;5032243;28;20428;-79
2024/02/21 00:36:48;;;;;;;5.22;1.90;;;13.50;67.00;;;;;;5018577;28;20090;-79
2024/02/21 00:39:32;;;;;;;4.45;2.08;;;13.50;67.00;;;;;;5031018;28;20072;-78
2024/02/21 00:42:18;;;;;;;6.72;1.88;;;13.50;67.00;;;;;;5031397;28;20124;-79
2024/02/21 00:45:03;;;;;;;5.30;2.17;;;13.50;67.10;;;;;;5036076;28;20088;-79
2024/02/21 00:47:47;;;;;;;5.95;2.00;;;13.40;66.90;;;;;;5031052;28;20044;-78
2024/02/21 00:50:32;;;;;;;7.05;2.30;;;13.40;67.00;;;;;;5036924;28;20079;-78
2024/02/21 00:53:16;;;;;;;4.35;1.70;;;13.50;67.20;;;;;;5031889;28;20039;-78
2024/02/21 00:56:01;;;;;;;4.22;1.98;;;13.40;67.00;;;;;;5027556;28;20334;-78
2024/02/21 00:58:47;;;;;;;7.93;2.50;;;13.40;67.10;;;;;;5033954;28;20560;-79
2024/02/21 01:01:31;;;;;;;5.32;1.90;;;13.40;67.10;;;;;;5034594;28;20076;-78
2024/02/21 01:04:18;;;;;;;5.38;2.05;;;13.40;67.20;;;;;;5017352;28;20113;-78
2024/02/21 01:07:03;;;;;;;3.78;2.15;;;13.40;67.20;;;;;;5032832;28;20484;-78
2024/02/21 01:09:48;;;;;;;5.00;1.73;;;13.40;67.20;;;;;;5022342;28;20431;-78
2024/02/21 01:12:32;;;;;;;6.15;2.05;;;13.40;67.30;;;;;;5033124;28;20036;-78
2024/02/21 01:15:16;;;;;;;4.97;1.92;;;13.40;67.30;;;;;;5019241;28;20087;-79
2024/02/21 01:18:02;;;;;;;5.75;1.63;;;13.30;67.20;;;;;;5037439;28;20040;-78
2024/02/21 01:20:49;;;;;;;5.72;2.22;;;13.30;67.20;;;;;;5029710;28;20051;-79
2024/02/21 01:23:35;;;;;;;5.72;1.80;;;13.30;67.30;;;;;;5032239;28;20061;-78
2024/02/21 01:26:19;;;;;;;5.60;1.75;;;13.30;67.30;;;;;;5032157;28;20526;-78
2024/02/21 01:29:04;;;;;;;6.72;1.95;;;13.30;67.40;;;;;;5032985;28;20238;-78
2024/02/21 01:31:49;;;;;;;4.63;1.77;;;13.30;67.40;;;;;;5029819;28;20076;-77
2024/02/21 01:34:33;;;;;;;3.45;1.45;;;13.30;67.50;;;;;;5028907;28;20487;-78
2024/02/21 01:37:18;;;;;;;2.55;1.42;;;13.30;67.50;;;;;;5035476;28;20075;-78
2024/02/21 01:40:03;;;;;;;6.25;1.95;;;13.30;67.50;;;;;;5048083;28;20393;-78
2024/02/21 01:42:48;;;;;;;3.90;1.30;;;13.30;67.50;;;;;;5034868;28;20028;-79
2024/02/21 01:45:32;;;;;;;3.50;1.35;;;13.30;67.60;;;;;;5031084;28;20040;-78
2024/02/21 01:48:22;;;;;;;6.47;2.13;;;13.30;67.60;;;;;;5033182;28;20112;-78
2024/02/21 01:51:06;;;;;;;7.00;2.30;;;13.30;67.70;;;;;;5030664;28;20039;-78
2024/02/21 01:53:51;;;;;;;5.47;1.67;;;13.20;67.50;;;;;;5030817;28;20044;-78
2024/02/21 01:56:36;;;;;;;5.00;1.58;;;13.20;67.50;;;;;;5017306;28;20137;-78
2024/02/21 01:59:22;;;;;;;3.50;1.77;;;13.20;67.60;;;;;;5032390;28;20040;-78
2024/02/21 02:02:06;;;;;;;3.45;1.55;;;13.20;67.60;;;;;;5036047;28;20166;-78
2024/02/21 02:04:52;;;;;;;4.93;1.60;;;13.20;67.60;;;;;;5035477;28;20103;-77
2024/02/21 02:07:37;;;;;;;4.93;1.75;;;13.20;67.60;;;;;;5029527;28;20508;-78
2024/02/21 02:10:21;;;;;;;3.30;1.60;;;13.20;67.70;;;;;;5031404;28;20036;-78
2024/02/21 02:13:06;;;;;;;4.03;1.65;;;13.20;67.60;;;;;;5042666;28;20036;-78
2024/02/21 02:15:51;;;;;;;3.55;1.50;;;13.20;67.70;;;;;;5031330;28;20040;-78
2024/02/21 02:18:35;;;;;;;5.88;2.65;;;13.20;67.80;;;;;;5041922;28;20120;-78
2024/02/21 02:21:32;;;;;;;3.55;1.40;;;13.10;67.60;;;;;;5027805;28;20446;-78
2024/02/21 02:24:17;;;;;;;7.97;1.70;;;13.10;67.70;;;;;;5031563;28;20037;-78
2024/02/21 02:27:01;;;;;;;4.13;1.50;;;13.10;67.70;;;;;;5031993;28;20535;-78
2024/02/21 02:29:46;;;;;;;5.22;1.50;;;13.10;67.70;;;;;;5034942;28;20105;-78
2024/02/21 02:32:31;;;;;;;3.40;1.65;;;13.10;67.80;;;;;;5038023;28;20111;-78
2024/02/21 02:35:16;;;;;;;5.55;2.22;;;13.10;67.80;;;;;;5047797;28;20400;-78
2024/02/21 02:38:00;;;;;;;6.55;2.42;;;13.10;67.80;;;;;;5050325;28;21134;-77
2024/02/21 02:40:45;;;;;;;4.85;1.30;;;13.10;67.80;;;;;;5043575;28;20050;-77
2024/02/21 02:43:29;;;;;;;4.47;1.92;;;13.10;67.90;;;;;;5042946;28;20079;-77
2024/02/21 02:46:14;;;;;;;4.25;1.83;;;13.10;67.90;;;;;;5039680;28;20560;-77
2024/02/21 02:48:58;;;;;;;5.55;1.73;;;13.10;68.00;;;;;;5041756;28;20082;-78
2024/02/21 02:51:43;;;;;;;3.75;1.55;;;13.00;67.80;;;;;;5034692;28;20586;-78
2024/02/21 02:54:29;;;;;;;5.75;1.52;;;13.00;67.80;;;;;;5034472;28;20091;-77
2024/02/21 02:57:13;;;;;;;4.63;1.98;;;13.00;67.80;;;;;;5046098;28;20059;-78
2024/02/21 02:59:58;;;;;;;6.78;2.22;;;13.00;67.90;;;;;;5040936;28;20044;-78
2024/02/21 03:02:45;;;;;;;3.08;1.42;;;13.00;67.90;;;;;;5036191;28;20086;-78
2024/02/21 03:05:30;;;;;;;4.07;1.55;;;13.00;67.90;;;;;;5033316;28;20075;-78
2024/02/21 03:08:15;;;;;;;6.95;1.77;;;13.00;68.00;;;;;;5037843;28;20122;-78
2024/02/21 03:11:00;;;;;;;4.80;1.80;;;12.90;67.80;;;;;;5042004;28;20042;-78
2024/02/21 03:13:45;;;;;;;7.55;2.53;;;12.90;67.80;;;;;;5050598;28;20178;-78
2024/02/21 03:16:29;;;;;;;3.42;1.95;;;12.90;67.90;;;;;;5043013;28;20031;-78
2024/02/21 03:19:14;;;;;;;3.45;1.65;;;12.90;67.90;;;;;;5041906;28;20641;-77
2024/02/21 03:21:59;;;;;;;4.30;1.58;;;12.90;67.90;;;;;;5035879;28;20079;-78
2024/02/21 03:24:45;;;;;;;3.60;1.67;;;12.90;68.00;;;;;;5041919;28;20467;-78
2024/02/21 03:27:30;;;;;;;5.07;2.50;;;12.90;68.00;;;;;;5040190;28;20044;-78
2024/02/21 03:30:15;;;;;;;5.22;2.30;;;12.90;68.00;;;;;;5046726;28;20094;-80
2024/02/21 03:33:01;;;;;;;6.35;2.00;;;12.90;68.00;;;;;;5033746;28;20674;-80
2024/02/21 03:35:45;;;;;;;4.28;2.47;;;12.80;67.90;;;;;;5039598;28;20032;-79
2024/02/21 03:38:29;;;;;;;4.90;1.48;;;12.80;67.90;;;;;;5036945;28;20036;-80
2024/02/21 03:41:14;;;;;;;3.17;1.90;;;12.80;67.90;;;;;;5045384;28;20502;-79
2024/02/21 03:43:58;;;;;;;3.55;1.70;;;12.80;68.00;;;;;;5045476;28;20072;-79
2024/02/21 03:46:42;;;;;;;5.47;2.20;;;12.80;68.00;;;;;;5042876;28;20178;-80
2024/02/21 03:49:27;;;;;;;4.53;1.73;;;12.80;68.00;;;;;;5027597;28;20080;-79
2024/02/21 03:52:11;;;;;;;2.63;1.40;;;12.70;67.90;;;;;;5025645;28;20032;-79
2024/02/21 03:54:56;;;;;;;4.85;1.80;;;12.70;67.90;;;;;;5037054;28;20041;-79
2024/02/21 03:57:40;;;;;;;3.67;1.83;;;12.70;68.00;;;;;;5035077;28;20138;-77
2024/02/21 04:00:24;;;;;;;4.85;2.00;;;12.70;68.00;;;;;;5038637;28;20123;-78
2024/02/21 04:03:10;;;;;;;4.50;1.27;;;12.70;68.00;;;;;;5046284;28;20261;-77
2024/02/21 04:05:55;;;;;;;3.20;1.40;;;12.70;68.00;;;;;;5036831;28;20036;-78
2024/02/21 04:08:42;;;;;;;3.63;1.45;;;12.60;67.90;;;;;;5046229;28;20032;-77
2024/02/21 04:11:27;;;;;;;3.97;1.70;;;12.60;67.90;;;;;;5049065;28;20047;-77
2024/02/21 04:14:13;;;;;;;3.22;1.40;;;12.60;68.00;;;;;;5040803;28;20072;-77
2024/02/21 04:16:57;;;;;;;3.95;1.60;;;12.60;68.00;;;;;;5046380;28;20428;-77
2024/02/21 04:19:42;;;;;;;2.60;1.80;;;12.60;68.00;;;;;;5044105;28;20070;-77
2024/02/21 04:22:27;;;;;;;5.28;1.63;;;12.60;68.10;;;;;;5043187;28;20059;-78
2024/02/21 04:25:12;;;;;;;1.65;1.42;;;12.60;68.10;;;;;;5043435;28;20070;-78
2024/02/21 04:27:56;;;;;;;6.43;2.03;;;12.60;68.10;;;;;;5035666;28;20116;-78
2024/02/21 04:30:42;;;;;;;5.05;1.58;;;12.50;67.90;;;;;;5044262;28;20514;-78
2024/02/21 04:33:26;;;;;;;2.47;1.20;;;12.50;68.00;;;;;;5033151;28;20036;-79
2024/02/21 04:36:11;;;;;;;2.95;1.33;;;12.50;68.00;;;;;;5039604;28;20114;-78
2024/02/21 04:38:55;;;;;;;3.88;1.55;;;12.50;68.00;;;;;;5046613;28;20426;-78
2024/02/21 04:41:40;;;;;;;3.13;1.65;;;12.50;68.00;;;;;;5046219;28;20797;-78
2024/02/21 04:44:25;;;;;;;3.38;1.40;;;12.50;68.00;;;;;;5045783;28;20036;-78
2024/02/21 04:47:10;;;;;;;1.83;1.35;;;12.50;68.10;;;;;;5046565;28;20162;-78
2024/02/21 04:49:55;;;;;;;2.67;1.67;;;12.40;67.90;;;;;;5035018;28;20039;-78
2024/02/21 04:52:39;;;;;;;5.93;2.50;;;12.40;67.90;;;;;;5038938;28;20035;-79
2024/02/21 04:55:24;;;;;;;3.95;1.50;;;12.40;68.00;;;;;;5048733;28;20058;-79
2024/02/21 04:58:09;;;;;;;2.95;1.33;;;12.40;68.00;;;;;;5038075;28;20044;-77
2024/02/21 05:00:55;;;;;;;3.63;1.58;;;12.40;68.00;;;;;;5031844;28;20077;-78
2024/02/21 05:03:39;;;;;;;3.58;1.50;;;12.40;68.10;;;;;;5042324;28;21181;-77
2024/02/21 05:06:23;;;;;;;4.10;1.80;;;12.40;68.10;;;;;;5041661;28;20055;-78
2024/02/21 05:09:09;;;;;;;3.70;1.27;;;12.40;68.10;;;;;;5027912;28;20044;-78
2024/02/21 05:11:53;;;;;;;3.70;1.27;;;12.40;68.10;;;;;;5041230;28;20490;-77
2024/02/21 05:14:38;;;;;;;2.92;1.25;;;12.40;68.20;;;;;;5051897;28;20035;-78
2024/02/21 05:17:22;;;;;;;2.63;1.10;;;12.40;68.20;;;;;;5052522;28;20083;-76
2024/02/21 05:20:08;;;;;;;2.85;1.13;;;12.40;68.20;;;;;;5032291;28;20047;-76
2024/02/21 05:22:52;;;;;;;2.83;1.35;;;12.40;68.20;;;;;;5051013;28;20062;-75
2024/02/21 05:25:37;;;;;;;2.53;1.27;;;12.40;68.20;;;;;;5033602;28;20430;-76
2024/02/21 05:28:22;;;;;;;3.60;1.33;;;12.40;68.20;;;;;;5048545;28;20080;-76
2024/02/21 05:31:06;;;;;;;3.95;1.30;;;12.40;68.30;;;;;;5047744;28;20107;-75
2024/02/21 05:33:51;;;;;;;3.78;1.52;;;12.40;68.30;;;;;;5052455;28;20320;-77
2024/02/21 05:36:36;;;;;;;2.30;1.20;;;12.30;68.10;;;;;;5046521;28;20075;-78
2024/02/21 05:39:22;;;;;;;4.15;1.40;;;12.40;68.30;;;;;;5032980;28;20072;-78
2024/02/21 05:42:07;;;;;;;4.85;1.45;;;12.30;68.20;;;;;;5049576;28;20071;-79
2024/02/21 05:44:52;;;;;;;3.15;1.20;;;12.40;68.40;;;;;;5044524;28;20035;-77
2024/02/21 05:47:37;;;;;;;3.45;1.50;;;12.40;68.40;;;;;;5041184;28;20044;-77
2024/02/21 05:50:23;;;;;;;1.77;1.15;;;12.30;68.20;;;;;;5034902;28;20044;-77
2024/02/21 05:53:08;;;;;;;2.22;1.70;;;12.30;68.30;;;;;;5036545;28;20650;-77
2024/02/21 05:55:52;;;;;;;1.90;1.52;;;12.30;68.30;;;;;;5033193;28;20036;-77
2024/02/21 05:58:37;;;;;;;4.22;1.55;;;12.30;68.40;;;;;;5037776;28;20943;-77
2024/02/21 06:01:22;;;;;;;2.83;1.20;;;12.30;68.40;;;;;;5034838;28;20060;-77
2024/02/21 06:04:06;;;;;;;4.72;1.38;;;12.30;68.40;;;;;;5022865;28;20528;-77
2024/02/21 06:06:51;;;;;;;2.30;1.30;;;12.30;68.50;;;;;;5041099;28;20374;-78
2024/02/21 06:09:35;;;;;;;2.55;1.25;;;12.30;68.50;;;;;;5038084;28;20051;-78
2024/02/21 06:12:20;;;;;;;4.60;1.20;;;12.30;68.50;;;;;;5034768;28;21078;-78
2024/02/21 06:15:05;;;;;;;3.10;1.27;;;12.30;68.50;;;;;;5036232;28;20095;-77
2024/02/21 06:17:50;;;;;;;2.92;1.00;;;12.30;68.50;;;;;;5034747;28;20044;-78
2024/02/21 06:20:36;;;;;;;2.70;1.10;;;12.30;68.50;;;;;;5033901;28;20593;-77
2024/02/21 06:23:21;;;;;;;3.40;1.95;;;12.30;68.60;;;;;;5034688;28;20032;-77
2024/02/21 06:26:05;;;;;;;2.55;1.25;;;12.30;68.60;;;;;;5031753;28;20563;-77
2024/02/21 06:28:50;;;;;;;2.92;1.30;;;12.30;68.60;;;;;;5039481;28;20108;-77
2024/02/21 06:31:35;;;;;;;4.03;0.80;;;12.30;68.60;;;;;;5035011;28;20131;-77
2024/02/21 06:34:19;;;;;;;1.70;0.82;;;12.30;68.70;;;;;;5039908;28;20131;-78
2024/02/21 06:37:07;;;;;;;3.67;1.10;;;12.30;68.70;;;;;;5034603;28;20043;-77
2024/02/21 06:39:51;;;;;;;1.40;0.65;;;12.20;68.60;;;;;;5034906;28;20444;-77
2024/02/21 06:42:36;;;;;;;2.15;1.95;;;12.20;69.10;;;;;;5031015;28;20044;-76
2024/02/21 06:45:20;;;;;;;3.38;1.10;;;12.20;68.60;;;;;;5027349;28;20052;-75
2024/02/21 06:48:06;;;;;;;1.88;0.88;;;12.20;68.70;;;;;;5039184;28;20043;-75
2024/02/21 06:50:51;;;;;;;1.65;0.85;;;12.20;68.70;;;;;;5031843;28;20108;-74
2024/02/21 06:53:38;;;;;;;2.97;0.88;;;12.20;68.80;;;;;;5048924;28;20048;-73
2024/02/21 06:56:28;;;;;;;2.28;1.15;;;12.20;69.20;;;;;;5034253;28;20134;-74
2024/02/21 06:59:15;;;;;;;4.57;1.77;;;12.30;69.60;;;;;;5032741;28;20137;-75
2024/02/21 07:02:00;;;;;;;3.75;1.20;;;12.30;69.90;;;;;;5034552;28;20071;-76
2024/02/21 07:04:45;;;;;;;3.67;1.23;;;12.40;70.50;;;;;;5022257;28;20044;-76
2024/02/21 07:07:29;;;;;;;3.35;1.08;;;12.50;71.00;;;;;;5037417;28;20079;-75
2024/02/21 07:10:14;;;;;;;14.60;3.30;;;12.50;71.20;;;;;;5035737;28;20048;-74
2024/02/21 07:12:58;;;;;;;49.58;11.18;;;12.50;71.30;;;;;;5035549;28;20073;-75
2024/02/21 07:15:43;;;;;;;41.28;10.30;;;12.50;71.40;;;;;;5030633;28;20048;-74
2024/02/21 07:18:27;;;;;;;41.70;10.57;;;12.60;71.90;;;;;;5033842;28;20072;-74
2024/02/21 07:21:12;;;;;;;40.10;9.25;;;12.60;72.10;;;;;;5046273;28;20115;-74
2024/02/21 07:23:57;;;;;;;36.50;9.32;;;12.60;72.30;;;;;;5033046;28;20501;-75
2024/02/21 07:26:45;;;;;;;28.98;6.63;;;12.60;72.60;;;;;;5032429;28;20041;-75
2024/02/21 07:29:30;;;;;;;30.98;7.75;;;12.70;73.00;;;;;;5032691;28;21353;-74
2024/02/21 07:32:14;;;;;;;26.17;5.97;;;12.70;73.20;;;;;;5031607;28;20555;-75
2024/02/21 07:34:59;;;;;;;24.60;6.22;;;12.70;73.50;;;;;;5030930;28;20088;-76
2024/02/21 07:37:43;;;;;;;19.27;6.18;;;12.80;73.80;;;;;;5024939;28;20043;-76
2024/02/21 07:40:27;;;;;;;19.23;5.93;;;12.80;73.80;;;;;;5034562;28;20044;-76
2024/02/21 07:43:12;;;;;;;20.45;5.55;;;12.80;73.90;;;;;;5038594;28;20453;-76
2024/02/21 07:45:56;;;;;;;19.55;5.13;;;12.80;73.90;;;;;;5031234;28;20044;-75
2024/02/21 07:48:41;;;;;;;20.92;5.32;;;12.80;73.90;;;;;;5029442;28;20040;-74
2024/02/21 07:51:28;;;;;;;15.32;4.85;;;12.80;73.90;;;;;;5035924;28;20527;-74
2024/02/21 07:54:12;;;;;;;16.95;5.65;;;12.80;73.90;;;;;;5033604;28;20111;-74
2024/02/21 07:56:57;;;;;;;17.20;4.88;;;12.80;73.90;;;;;;5031761;28;20036;-75
2024/02/21 07:59:42;;;;;;;10.32;3.55;;;12.80;73.90;;;;;;5036412;28;20051;-74
2024/02/21 08:02:26;;;;;;;14.23;4.65;;;12.70;73.70;;;;;;5036564;28;20056;-74
2024/02/21 08:05:12;;;;;;;12.85;4.78;;;12.80;73.80;;;;;;5029287;28;20063;-74
2024/02/21 08:07:56;;;;;;;12.63;4.03;;;12.70;73.60;;;;;;5040751;28;20098;-74
2024/02/21 08:10:41;;;;;;;12.32;3.35;;;12.70;73.60;;;;;;5030637;28;20094;-74
2024/02/21 08:13:28;;;;;;;11.32;3.05;;;12.70;73.60;;;;;;5024332;28;20047;-74
2024/02/21 08:16:12;;;;;;;9.77;3.63;;;12.70;73.50;;;;;;5033081;28;20134;-75
2024/02/21 08:18:57;;;;;;;14.40;3.47;;;12.70;73.50;;;;;;5028361;28;20159;-75
2024/02/21 08:21:42;;;;;;;9.60;3.10;;;12.70;73.50;;;;;;5035490;28;20471;-74
2024/02/21 08:24:26;;;;;;;8.13;2.65;;;12.70;73.50;;;;;;5033355;28;20616;-74
2024/02/21 08:27:14;;;;;;;7.22;3.03;;;12.70;73.40;;;;;;5027149;28;20031;-74
2024/02/21 08:29:58;;;;;;;8.85;2.63;;;12.70;73.50;;;;;;5020915;28;20128;-75
2024/02/21 08:32:43;;;;;;;9.32;4.22;;;12.70;73.30;;;;;;5035364;28;20075;-74
2024/02/21 08:35:28;;;;;;;7.38;2.45;;;12.70;73.30;;;;;;5021678;28;20146;-73
2024/02/21 08:38:12;;;;;;;4.80;2.10;;;12.70;73.30;;;;;;5030464;28;20079;-74
2024/02/21 08:40:57;;;;;;;6.60;2.40;;;12.70;73.20;;;;;;5033974;28;20455;-75
2024/02/21 08:43:41;;;;;;;4.40;1.77;;;12.70;73.20;;;;;;5032062;28;20115;-74
2024/02/21 08:46:26;;;;;;;5.10;1.55;;;12.70;73.10;;;;;;5037094;28;20052;-74
2024/02/21 08:49:10;;;;;;;4.53;1.63;;;12.70;73.20;;;;;;5030039;28;20128;-74
2024/02/21 08:51:55;;;;;;;5.55;1.80;;;12.80;73.30;;;;;;5027820;28;20412;-75
2024/02/21 08:54:40;;;;;;;5.68;1.50;;;12.70;73.00;;;;;;5025865;28;20051;-74
2024/02/21 08:57:26;;;;;;;6.68;2.35;;;12.70;73.00;;;;;;5035347;28;20044;-75
2024/02/21 09:00:12;;;;;;;4.75;1.80;;;12.80;73.10;;;;;;5041158;28;20530;-74
2024/02/21 09:02:57;;;;;;;3.28;1.58;;;12.80;73.10;;;;;;5038125;28;20116;-74
2024/02/21 09:05:41;;;;;;;4.88;1.45;;;12.80;73.00;;;;;;5035261;28;20374;-74
2024/02/21 09:08:26;;;;;;;5.97;1.88;;;12.80;73.00;;;;;;5030951;28;20103;-74
2024/02/21 09:11:11;;;;;;;6.00;1.90;;;12.80;73.00;;;;;;5037063;28;20102;-75
2024/02/21 09:13:56;;;;;;;4.00;2.13;;;12.80;72.90;;;;;;5037203;28;20121;-74
2024/02/21 09:16:40;;;;;;;3.35;1.50;;;12.80;72.90;;;;;;5032983;28;20048;-75
2024/02/21 09:19:25;;;;;;;2.92;1.10;;;12.90;73.00;;;;;;5034898;28;20061;-74
2024/02/21 09:22:10;;;;;;;3.42;2.00;;;12.90;73.00;;;;;;5030979;28;20155;-74
2024/02/21 09:24:54;;;;;;;3.10;1.10;;;12.90;72.90;;;;;;5032190;28;20183;-75
2024/02/21 09:27:39;;;;;;;3.47;1.40;;;12.90;72.90;;;;;;5033982;28;20064;-74
2024/02/21 09:30:23;;;;;;;5.32;1.55;;;13.00;73.00;;;;;;5033735;28;20071;-76
2024/02/21 09:33:07;;;;;;;3.95;1.10;;;13.00;73.10;;;;;;5033544;28;20064;-76
2024/02/21 09:35:52;;;;;;;5.78;1.40;;;13.00;73.50;;;;;;5032134;28;20035;-76
2024/02/21 09:38:39;;;;;;;2.33;0.90;;;13.10;73.90;;;;;;5031478;28;20249;-74
2024/02/21 09:41:27;;;;;;;3.70;0.90;;;13.20;74.10;;;;;;5037097;28;20098;-75
2024/02/21 09:44:17;;;;;;;2.88;0.93;;;13.20;74.20;;;;;;5036097;28;20094;-74
2024/02/21 09:47:13;;;;;;;1.80;0.60;;;13.20;74.10;;;;;;5045824;28;20301;-74
2024/02/21 09:49:59;;;;;;;1.30;0.73;;;13.30;74.30;;;;;;5026957;28;20044;-74
2024/02/21 09:52:44;;;;;;;2.28;0.90;;;13.20;74.10;;;;;;5033905;28;20072;-74
2024/02/21 09:55:34;;;;;;;1.50;0.70;;;13.30;74.20;;;;;;5032416;28;20404;-74
2024/02/21 09:58:18;;;;;;;3.70;1.40;;;13.30;74.20;;;;;;5036048;28;20111;-74
2024/02/21 10:01:06;;;;;;;2.25;0.57;;;13.30;74.20;;;;;;5030792;28;20134;-74
2024/02/21 10:03:50;;;;;;;1.52;0.73;;;13.30;74.10;;;;;;5036266;28;20186;-75
2024/02/21 10:06:39;;;;;;;1.48;0.63;;;13.30;74.10;;;;;;5037511;28;20040;-74
2024/02/21 10:09:28;;;;;;;1.23;0.73;;;13.30;74.00;;;;;;5038202;28;20056;-74
2024/02/21 10:12:12;;;;;;;2.60;0.70;;;13.40;74.20;;;;;;5034693;28;20065;-74
2024/02/21 10:15:05;;;;;;;0.80;0.52;;;13.40;74.10;;;;;;5032238;28;20048;-74
2024/02/21 10:17:59;;;;;;;1.00;0.40;;;13.40;74.10;;;;;;5039941;28;20083;-74
2024/02/21 10:20:44;;;;;;;1.58;0.60;;;13.40;74.00;;;;;;5031885;28;20071;-74
2024/02/21 10:23:28;;;;;;;1.85;0.68;;;13.40;73.90;;;;;;5033176;28;20737;-74
2024/02/21 10:26:14;;;;;;;1.85;0.73;;;13.40;73.90;;;;;;5027002;28;20539;-74
2024/02/21 10:29:02;;;;;;;0.60;0.43;;;13.40;73.90;;;;;;5035648;28;20095;-74
2024/02/21 10:31:46;;;;;;;1.77;0.60;;;13.50;74.00;;;;;;5036446;28;20295;-73
2024/02/21 10:34:30;;;;;;;1.85;0.60;;;13.50;73.90;;;;;;5035252;28;20083;-74
2024/02/21 10:37:15;;;;;;;0.95;0.50;;;13.50;73.80;;;;;;5036741;28;20660;-74
2024/02/21 10:40:01;;;;;;;1.15;0.45;;;13.60;73.90;;;;;;5041230;28;20084;-74
2024/02/21 10:42:48;;;;;;;1.95;0.55;;;13.60;73.80;;;;;;5037062;28;20040;-73
2024/02/21 10:45:35;;;;;;;1.95;0.65;;;13.60;73.70;;;;;;5033468;28;20090;-73
2024/02/21 10:48:28;;;;;;;1.48;0.50;;;13.70;73.80;;;;;;5037958;28;20095;-73
2024/02/21 10:51:23;;;;;;;1.70;0.65;;;13.70;73.60;;;;;;5033088;28;20043;-74
2024/02/21 10:54:21;;;;;;;2.33;0.65;;;13.80;73.80;;;;;;5035575;28;20439;-76
2024/02/21 10:57:06;;;;;;;1.15;0.43;;;13.80;73.70;;;;;;5036718;28;20107;-74
2024/02/21 10:59:52;;;;;;;1.85;0.60;;;13.90;73.70;;;;;;5031808;28;20103;-74
2024/02/21 11:02:39;;;;;;;1.25;0.55;;;14.00;73.70;;;;;;5026681;28;20274;-74
2024/02/21 11:05:25;;;;;;;1.55;0.30;;;14.00;73.50;;;;;;5031940;28;20043;-74
2024/02/21 11:08:10;;;;;;;1.38;0.82;;;14.10;73.60;;;;;;5037487;28;20094;-73
2024/02/21 11:11:00;;;;;;;3.03;0.50;;;14.10;73.50;;;;;;5039749;28;20119;-73
2024/02/21 11:13:45;;;;;;;1.40;0.55;;;14.10;73.40;;;;;;5031306;28;20052;-74
2024/02/21 11:16:35;;;;;;;1.25;0.60;;;14.10;73.30;;;;;;5026329;28;20098;-74
2024/02/21 11:19:25;;;;;;;2.00;0.30;;;14.20;73.40;;;;;;5036074;28;20098;-74
2024/02/21 11:22:17;;;;;;;0.82;0.40;;;14.30;73.50;;;;;;5035493;28;20125;-74
2024/02/21 11:25:11;;;;;;;0.65;0.30;;;14.30;73.30;;;;;;5038009;28;20090;-74
2024/02/21 11:28:06;;;;;;;1.35;0.40;;;14.40;73.30;;;;;;5035273;28;20412;-74
2024/02/21 11:30:51;;;;;;;1.33;0.60;;;14.40;73.20;;;;;;5026686;28;20088;-74
2024/02/21 11:33:38;;;;;;;2.03;0.40;;;14.50;73.20;;;;;;5032959;28;20083;-75
2024/02/21 11:36:27;;;;;;;2.00;1.50;;;14.50;73.20;;;;;;5022479;28;20115;-74
2024/02/21 11:39:11;;;;;;;0.73;0.55;;;14.60;73.50;;;;;;5032154;28;20121;-73
2024/02/21 11:42:14;;;;;;;3.08;0.60;;;14.70;73.80;;;;;;5035090;28;20118;-76
2024/02/21 11:45:00;;;;;;;0.40;0.30;;;14.80;74.20;;;;;;5034970;28;20550;-74
2024/02/21 11:47:45;;;;;;;4.93;2.40;;;15.00;74.30;;;;;;5037897;28;20098;-74
2024/02/21 11:50:31;;;;;;;3.15;1.77;;;15.10;74.20;;;;;;5024347;28;20067;-74
2024/02/21 11:53:17;;;;;;;2.92;1.30;;;15.30;74.40;;;;;;5038594;28;20444;-73
2024/02/21 11:56:02;;;;;;;2.60;1.10;;;15.50;74.50;;;;;;5025583;28;20035;-74
2024/02/21 11:58:47;;;;;;;1.90;0.90;;;15.60;74.30;;;;;;5030232;28;20287;-73
2024/02/21 12:01:32;;;;;;;1.48;0.93;;;15.70;74.20;;;;;;5038156;28;20051;-74
2024/02/21 12:04:18;;;;;;;3.05;0.90;;;15.90;74.30;;;;;;5036168;28;20579;-74
2024/02/21 12:07:04;;;;;;;1.30;0.57;;;16.00;74.20;;;;;;5035002;28;20089;-74
2024/02/21 12:09:49;;;;;;;1.20;0.68;;;16.10;74.20;;;;;;5031177;28;20171;-74
2024/02/21 12:12:36;;;;;;;1.38;0.47;;;16.10;73.90;;;;;;5033208;28;20040;-75
2024/02/21 12:15:20;;;;;;;1.25;0.50;;;16.20;73.90;;;;;;5024764;28;20074;-74
2024/02/21 12:18:05;;;;;;;0.95;0.50;;;16.30;73.90;;;;;;5034491;28;20044;-74
2024/02/21 12:20:50;;;;;;;1.90;0.60;;;16.30;73.70;;;;;;5033697;28;20052;-73
2024/02/21 12:23:34;;;;;;;1.20;0.38;;;16.40;73.70;;;;;;5043087;28;20044;-73
2024/02/21 12:26:19;;;;;;;3.00;0.70;;;16.50;73.70;;;;;;5036021;28;20515;-73
2024/02/21 12:29:03;;;;;;;0.73;0.47;;;16.60;73.60;;;;;;5034387;28;20045;-74
2024/02/21 12:31:49;;;;;;;1.55;0.45;;;16.60;73.40;;;;;;5034700;28;20480;-74
2024/02/21 12:34:33;;;;;;;1.85;0.60;;;16.70;73.40;;;;;;5032052;28;20134;-74
2024/02/21 12:37:19;;;;;;;1.65;0.50;;;16.70;73.20;;;;;;5035867;28;20071;-73
2024/02/21 12:40:06;;;;;;;3.88;0.80;;;16.80;73.10;;;;;;5041749;28;20486;-74
2024/02/21 12:42:52;;;;;;;1.33;0.40;;;16.90;73.10;;;;;;5035801;28;20067;-74
2024/02/21 12:45:36;;;;;;;0.50;0.30;;;17.00;73.00;;;;;;5031103;28;20119;-74
2024/02/21 12:48:22;;;;;;;1.80;0.47;;;17.10;73.00;;;;;;5029072;28;20071;-74
2024/02/21 12:51:07;;;;;;;0.70;0.40;;;17.20;72.90;;;;;;5031352;28;20044;-74
2024/02/21 12:53:51;;;;;;;0.55;0.30;;;17.30;72.80;;;;;;5037205;28;20133;-74
2024/02/21 12:56:36;;;;;;;0.50;0.30;;;17.40;72.70;;;;;;5033134;28;20064;-74
2024/02/21 12:59:21;;;;;;;1.45;0.30;;;17.50;72.50;;;;;;5028642;28;20048;-74
2024/02/21 13:02:06;;;;;;;0.40;0.30;;;17.60;72.30;;;;;;5033101;28;20051;-74
2024/02/21 13:04:51;;;;;;;0.30;0.20;;;17.70;72.60;;;;;;5032831;28;20098;-74
2024/02/21 13:07:35;;;;;;;0.75;0.30;;;17.90;72.10;;;;;;5036768;28;20124;-74
2024/02/21 13:10:20;;;;;;;1.02;0.40;;;18.00;71.90;;;;;;5043561;28;20098;-74
2024/02/21 13:13:04;;;;;;;0.20;0.20;;;18.10;71.70;;;;;;5038122;28;20075;-74
2024/02/21 13:15:49;;;;;;;1.52;0.30;;;18.20;71.60;;;;;;5035609;28;20076;-74
2024/02/21 13:18:37;;;;;;;0.80;0.30;;;18.20;71.40;;;;;;5026502;28;20044;-74
2024/02/21 13:21:21;;;;;;;0.38;0.32;;;18.30;71.40;;;;;;5026810;28;20413;-74
2024/02/21 13:24:06;;;;;;;0.73;0.40;;;18.30;71.20;;;;;;5034283;28;20074;-74
2024/02/21 13:26:51;;;;;;;2.60;0.38;;;18.30;71.00;;;;;;5022234;28;20531;-74
2024/02/21 13:29:35;;;;;;;2.20;0.65;;;18.30;70.90;;;;;;5031331;28;20511;-74
2024/02/21 13:32:20;;;;;;;0.50;0.30;;;18.30;70.80;;;;;;5035212;28;20048;-74
2024/02/21 13:35:05;;;;;;;1.05;0.40;;;18.30;70.70;;;;;;5030268;28;20122;-74
2024/02/21 13:37:50;;;;;;;0.82;0.30;;;18.20;70.50;;;;;;5023652;28;20037;-74
2024/02/21 13:40:34;;;;;;;0.50;0.30;;;18.20;70.50;;;;;;5036614;28;20189;-74
2024/02/21 13:43:19;;;;;;;0.45;0.30;;;18.20;70.50;;;;;;5033323;28;20040;-73
2024/02/21 13:46:09;;;;;;;0.52;0.30;;;18.20;70.50;;;;;;5026425;28;20273;-73
2024/02/21 13:49:04;;;;;;;0.38;0.20;;;18.10;70.30;;;;;;5040236;28;20047;-74
2024/02/21 13:51:48;;;;;;;0.90;0.38;;;18.10;70.30;;;;;;5036713;28;20179;-73
2024/02/21 13:54:33;;;;;;;0.85;0.32;;;18.00;70.20;;;;;;5035830;28;20048;-73
2024/02/21 13:57:17;;;;;;;0.43;0.40;;;18.00;70.10;;;;;;5035366;28;20486;-74
2024/02/21 14:00:03;;;;;;;0.30;0.20;;;18.00;70.20;;;;;;5036571;28;20459;-75
2024/02/21 14:02:57;;;;;;;1.17;0.40;;;18.00;70.10;;;;;;5036159;28;20167;-75
2024/02/21 14:05:42;;;;;;;0.80;0.32;;;18.00;70.10;;;;;;5037803;28;20816;-75
2024/02/21 14:08:27;;;;;;;1.00;0.28;;;18.10;70.20;;;;;;5035850;28;20047;-74
2024/02/21 14:11:12;;;;;;;1.02;0.30;;;18.10;70.10;;;;;;5038225;28;20126;-75
2024/02/21 14:13:57;;;;;;;2.05;0.50;;;18.10;70.10;;;;;;5032654;28;20113;-75
2024/02/21 14:16:41;;;;;;;1.17;0.40;;;18.10;70.00;;;;;;5034593;28;20040;-74
2024/02/21 14:19:25;;;;;;;1.60;0.40;;;18.00;69.80;;;;;;5034768;28;20204;-75